Terminal Aerodrome Forecast
Issued by NWS

Home | Current Version | Previous Version | Text Only | Print | Product List | Glossary On
Versions: 1 2 3 4 5 6 7 8 9 10 11 12 13 14 15 16 17 18 19 20
190
FTUS45 KFGZ 252136 AAB
TAFPRC
TAF AMD
KPRC 252136Z 2522/2618 22010G20KT P6SM SCT120
     FM260300 21006KT P6SM FEW140=

USA.gov is the U.S. government's official web portal to all federal, state and local government web resources and services.